Time;durP1;ratioP1;P1;durP2;ratioP2;P2;SDS_P1;SDS_P2;PMS_P1;PMS_P2;Temp;Humidity;BMP_temperature;BMP_pressure;BME280_temperature;BME280_humidity;BME280_pressure;Samples;Min_cycle;Max_cycle;Signal;HPM_P1;HPM_P2
2020/12/07 00:00:18;;;;;;;62.42;34.72;;;0.20;99.90;;;;;;5084990;28;20028;-38
2020/12/07 00:02:43;;;;;;;58.53;32.22;;;0.20;99.90;;;;;;5072889;28;20031;-39
2020/12/07 00:05:09;;;;;;;59.22;31.77;;;0.20;99.90;;;;;;5081255;28;20036;-38
2020/12/07 00:07:35;;;;;;;57.60;28.88;;;0.20;99.90;;;;;;5071393;28;20046;-39
2020/12/07 00:10:02;;;;;;;63.67;31.10;;;0.20;99.90;;;;;;5072162;28;20028;-38
2020/12/07 00:12:29;;;;;;;56.85;31.02;;;0.20;99.90;;;;;;5056933;28;20111;-38
2020/12/07 00:14:55;;;;;;;53.53;28.83;;;0.30;99.90;;;;;;5038438;28;20082;-40
2020/12/07 00:17:24;;;;;;;55.78;29.83;;;0.30;99.90;;;;;;5053422;28;20131;-38
2020/12/07 00:19:51;;;;;;;50.75;28.42;;;0.40;99.90;;;;;;5045000;28;20091;-39
2020/12/07 00:22:24;;;;;;;49.92;26.85;;;0.40;99.90;;;;;;5066998;28;20492;-38
2020/12/07 00:24:50;;;;;;;45.42;26.08;;;0.40;99.90;;;;;;5052200;28;20182;-39
2020/12/07 00:27:27;;;;;;;48.25;26.27;;;0.30;99.90;;;;;;5072600;28;20032;-38
2020/12/07 00:29:54;;;;;;;50.53;26.20;;;0.30;99.90;;;;;;5080567;28;20133;-39
2020/12/07 00:32:21;;;;;;;49.05;26.65;;;0.30;99.90;;;;;;5071922;28;20338;-42
2020/12/07 00:34:47;;;;;;;45.85;25.27;;;0.40;99.90;;;;;;5054720;28;20150;-39
2020/12/07 00:37:13;;;;;;;49.13;25.98;;;0.40;99.90;;;;;;5073913;28;20033;-39
2020/12/07 00:39:39;;;;;;;54.67;28.80;;;0.30;99.90;;;;;;5072608;28;20381;-42
2020/12/07 00:42:08;;;;;;;51.45;28.88;;;0.30;99.90;;;;;;5076839;28;20025;-40
2020/12/07 00:44:35;;;;;;;50.72;27.65;;;0.30;99.90;;;;;;5073172;28;20506;-40
2020/12/07 00:47:00;;;;;;;50.67;28.02;;;0.40;99.90;;;;;;5078434;28;20037;-39
2020/12/07 00:49:26;;;;;;;49.38;27.75;;;0.30;99.90;;;;;;5073329;28;20055;-39
2020/12/07 00:51:51;;;;;;;49.67;27.33;;;0.30;99.90;;;;;;5075431;28;20063;-40
2020/12/07 00:54:17;;;;;;;47.95;26.77;;;0.30;99.90;;;;;;5053490;28;20052;-43
2020/12/07 00:56:43;;;;;;;49.05;27.45;;;0.40;99.90;;;;;;5072172;28;20032;-40
2020/12/07 00:59:10;;;;;;;50.45;25.45;;;0.40;99.90;;;;;;5072181;28;20043;-39
2020/12/07 01:01:36;;;;;;;47.28;26.17;;;0.50;99.90;;;;;;5072850;28;20063;-39
2020/12/07 01:04:02;;;;;;;46.97;27.38;;;0.50;99.90;;;;;;5072644;28;20393;-44
2020/12/07 01:06:31;;;;;;;48.85;25.85;;;0.50;99.90;;;;;;5077654;28;20066;-38
2020/12/07 01:08:58;;;;;;;49.13;26.20;;;0.50;99.90;;;;;;5053564;28;20052;-39
2020/12/07 01:11:23;;;;;;;47.75;25.65;;;0.50;99.90;;;;;;5072215;28;20029;-39
2020/12/07 01:13:49;;;;;;;46.13;24.50;;;0.50;99.90;;;;;;5072080;28;20042;-38
2020/12/07 01:16:22;;;;;;;46.17;24.75;;;0.50;99.90;;;;;;5075047;28;20491;-40
2020/12/07 01:18:49;;;;;;;48.58;25.33;;;0.50;99.90;;;;;;5047660;28;20427;-38
2020/12/07 01:21:16;;;;;;;46.05;24.05;;;0.50;99.90;;;;;;5072399;28;20920;-40
2020/12/07 01:23:44;;;;;;;47.92;23.95;;;0.50;99.90;;;;;;5071610;28;20123;-44
2020/12/07 01:26:11;;;;;;;47.25;24.38;;;0.50;99.90;;;;;;5072419;28;20096;-38
2020/12/07 01:28:37;;;;;;;48.10;24.27;;;0.50;99.90;;;;;;5071805;28;20016;-39
2020/12/07 01:31:02;;;;;;;43.88;23.98;;;0.60;99.90;;;;;;5072396;28;20544;-40
2020/12/07 01:33:28;;;;;;;46.15;25.00;;;0.60;99.90;;;;;;5072524;28;20037;-38
2020/12/07 01:35:54;;;;;;;45.83;23.30;;;0.60;99.90;;;;;;5060875;28;20028;-39
2020/12/07 01:38:20;;;;;;;46.15;24.33;;;0.60;99.90;;;;;;5071912;28;20422;-38
2020/12/07 01:40:45;;;;;;;46.92;25.55;;;0.50;99.90;;;;;;5072027;28;20028;-39
2020/12/07 01:43:11;;;;;;;45.60;24.67;;;0.50;99.90;;;;;;5071555;28;20389;-38
2020/12/07 01:45:36;;;;;;;47.97;24.85;;;0.50;99.90;;;;;;5071102;28;20488;-44
2020/12/07 01:48:03;;;;;;;45.33;25.27;;;0.60;99.90;;;;;;5072039;28;20032;-39
2020/12/07 01:50:29;;;;;;;45.75;25.83;;;0.60;99.90;;;;;;5087574;28;20049;-39
2020/12/07 01:52:55;;;;;;;43.40;24.40;;;0.60;99.90;;;;;;5070751;28;20032;-47
2020/12/07 01:55:21;;;;;;;43.65;24.20;;;0.60;99.90;;;;;;5075459;28;20040;-39
2020/12/07 01:57:46;;;;;;;44.22;24.05;;;0.60;99.90;;;;;;5078679;28;20029;-40
2020/12/07 02:00:12;;;;;;;48.97;25.83;;;0.60;99.90;;;;;;5070800;28;20037;-39
2020/12/07 02:02:38;;;;;;;46.60;24.70;;;0.60;99.90;;;;;;5073341;28;20036;-40
2020/12/07 02:05:03;;;;;;;41.15;22.73;;;0.60;99.90;;;;;;5074729;28;20116;-39
2020/12/07 02:07:29;;;;;;;42.72;23.70;;;0.60;99.90;;;;;;5081162;28;20204;-43
2020/12/07 02:09:54;;;;;;;41.78;24.25;;;0.60;99.90;;;;;;5075271;28;20028;-40
2020/12/07 02:12:20;;;;;;;41.20;23.77;;;0.60;99.90;;;;;;5077540;28;20048;-38
2020/12/07 02:14:46;;;;;;;42.95;24.42;;;0.60;99.90;;;;;;5075891;28;20057;-39
2020/12/07 02:17:11;;;;;;;45.30;23.92;;;0.60;99.90;;;;;;5057849;28;20087;-39
2020/12/07 02:19:37;;;;;;;41.70;22.33;;;0.60;99.90;;;;;;5056537;28;20127;-40
2020/12/07 02:22:02;;;;;;;42.30;22.63;;;0.70;99.90;;;;;;5056472;28;20025;-38
2020/12/07 02:24:28;;;;;;;40.55;23.52;;;0.70;99.90;;;;;;5073949;28;20046;-39
2020/12/07 02:26:53;;;;;;;43.38;23.30;;;0.70;99.90;;;;;;5075139;28;20090;-39
2020/12/07 02:29:26;;;;;;;41.72;23.10;;;0.70;99.90;;;;;;5075884;28;20025;-39
2020/12/07 02:31:56;;;;;;;41.75;22.95;;;0.70;99.90;;;;;;5074266;28;20031;-38
2020/12/07 02:34:22;;;;;;;41.22;22.38;;;0.70;99.90;;;;;;5080817;28;20063;-39
2020/12/07 02:36:47;;;;;;;42.22;22.30;;;0.70;99.90;;;;;;5080492;28;20052;-39
2020/12/07 02:39:13;;;;;;;43.10;23.30;;;0.70;99.90;;;;;;5075065;28;20044;-39
2020/12/07 02:41:39;;;;;;;47.05;23.67;;;0.80;99.90;;;;;;5077112;28;20078;-39
2020/12/07 02:44:04;;;;;;;39.70;22.52;;;0.80;99.90;;;;;;5074606;28;20119;-39
2020/12/07 02:46:30;;;;;;;45.95;23.30;;;0.80;99.90;;;;;;5074683;28;20028;-40
2020/12/07 02:48:55;;;;;;;42.40;21.60;;;0.80;99.90;;;;;;5075124;28;20028;-38
2020/12/07 02:51:21;;;;;;;40.92;21.83;;;0.90;99.90;;;;;;5079699;28;21182;-39
2020/12/07 02:53:46;;;;;;;43.17;22.23;;;0.90;99.90;;;;;;5074780;28;20036;-39
2020/12/07 02:56:12;;;;;;;37.33;20.42;;;0.90;99.90;;;;;;5069109;28;20031;-40
2020/12/07 02:58:37;;;;;;;42.38;22.75;;;0.90;99.90;;;;;;5073301;28;20374;-39
2020/12/07 03:01:03;;;;;;;42.17;20.63;;;1.00;99.90;;;;;;5056290;28;20457;-39
2020/12/07 03:03:29;;;;;;;39.97;21.15;;;1.00;99.90;;;;;;5076161;28;20512;-43
2020/12/07 03:05:54;;;;;;;45.47;23.13;;;1.00;99.90;;;;;;5079561;28;20472;-40
2020/12/07 03:08:20;;;;;;;39.80;21.73;;;1.10;99.90;;;;;;5073479;28;20028;-38
2020/12/07 03:10:46;;;;;;;49.28;25.73;;;1.10;99.90;;;;;;5073566;28;20067;-39
2020/12/07 03:13:11;;;;;;;40.42;21.52;;;1.20;99.90;;;;;;5074355;28;20033;-40
2020/12/07 03:15:37;;;;;;;39.20;21.50;;;1.30;99.90;;;;;;5080817;28;20052;-38
2020/12/07 03:18:02;;;;;;;37.83;20.80;;;1.40;99.90;;;;;;5069876;28;20033;-39
2020/12/07 03:20:28;;;;;;;40.30;21.75;;;1.30;99.90;;;;;;5055404;28;20036;-40
2020/12/07 03:22:53;;;;;;;40.88;23.05;;;1.40;99.90;;;;;;5054657;28;20029;-40
2020/12/07 03:25:19;;;;;;;41.03;21.52;;;1.40;99.90;;;;;;5079791;28;20508;-39
2020/12/07 03:27:45;;;;;;;39.92;21.05;;;1.40;99.90;;;;;;5080468;28;20070;-39
2020/12/07 03:30:10;;;;;;;46.22;21.15;;;1.40;99.90;;;;;;5055955;28;20027;-38
2020/12/07 03:32:36;;;;;;;37.63;21.00;;;1.40;99.90;;;;;;5074202;28;20036;-38
2020/12/07 03:35:01;;;;;;;39.55;21.33;;;1.40;99.90;;;;;;5073405;28;20036;-41
2020/12/07 03:37:27;;;;;;;38.60;20.45;;;1.40;99.90;;;;;;5074274;28;20082;-38
2020/12/07 03:39:52;;;;;;;39.75;21.08;;;1.40;99.90;;;;;;5089197;28;20028;-37
2020/12/07 03:42:18;;;;;;;38.92;20.25;;;1.40;99.90;;;;;;5074131;28;20036;-38
2020/12/07 03:44:43;;;;;;;36.20;19.67;;;1.40;99.90;;;;;;5072949;28;20040;-39
2020/12/07 03:47:09;;;;;;;41.30;19.90;;;1.40;99.90;;;;;;5074309;28;20032;-38
2020/12/07 03:49:35;;;;;;;39.03;20.15;;;1.40;99.90;;;;;;5073033;28;20144;-40
2020/12/07 03:52:02;;;;;;;43.92;22.30;;;1.40;99.90;;;;;;5071960;28;20024;-39
2020/12/07 03:54:27;;;;;;;38.50;20.52;;;1.50;99.90;;;;;;5055014;28;20045;-39
2020/12/07 03:56:53;;;;;;;46.88;21.25;;;1.50;99.90;;;;;;5074381;28;20032;-38
2020/12/07 03:59:18;;;;;;;37.95;20.40;;;1.60;99.90;;;;;;5079400;28;20035;-39
2020/12/07 04:01:44;;;;;;;40.10;20.35;;;1.60;99.90;;;;;;5074779;28;20032;-40
2020/12/07 04:04:14;;;;;;;42.83;22.25;;;1.60;99.90;;;;;;5073999;28;20032;-39
2020/12/07 04:06:42;;;;;;;43.67;21.52;;;1.70;99.90;;;;;;5060924;28;20024;-39
2020/12/07 04:09:07;;;;;;;47.03;23.38;;;1.70;99.90;;;;;;5073655;28;20052;-40
2020/12/07 04:11:33;;;;;;;51.97;23.70;;;1.80;99.90;;;;;;5083554;28;20100;-38
2020/12/07 04:13:59;;;;;;;48.33;24.10;;;1.80;99.90;;;;;;5086305;28;20417;-41
2020/12/07 04:16:28;;;;;;;53.85;24.25;;;1.80;99.90;;;;;;5076234;28;20509;-39
2020/12/07 04:18:53;;;;;;;47.67;24.35;;;2.00;99.90;;;;;;5076593;28;20028;-38
2020/12/07 04:21:19;;;;;;;46.55;25.35;;;2.10;99.90;;;;;;5075269;28;20086;-39
2020/12/07 04:23:44;;;;;;;48.70;24.10;;;2.10;99.90;;;;;;5073003;28;20392;-40
2020/12/07 04:26:10;;;;;;;49.47;27.58;;;2.20;99.90;;;;;;5074846;28;20021;-39
2020/12/07 04:28:35;;;;;;;51.35;26.27;;;2.40;99.90;;;;;;5080859;28;20028;-40
2020/12/07 04:31:01;;;;;;;49.92;25.55;;;2.40;99.90;;;;;;5055643;28;20048;-39
2020/12/07 04:33:27;;;;;;;48.53;24.90;;;2.50;99.90;;;;;;5086473;28;20035;-39
2020/12/07 04:35:52;;;;;;;48.65;25.27;;;2.50;99.90;;;;;;5054461;28;20052;-40
2020/12/07 04:38:18;;;;;;;51.25;27.60;;;2.60;99.90;;;;;;5072807;28;20020;-39
2020/12/07 04:40:43;;;;;;;55.17;28.13;;;2.70;99.90;;;;;;5072244;28;20111;-41
2020/12/07 04:43:09;;;;;;;51.92;27.73;;;2.80;99.90;;;;;;5072814;28;20024;-39
2020/12/07 04:45:35;;;;;;;56.28;27.95;;;2.90;99.90;;;;;;5077067;28;20032;-39
2020/12/07 04:48:01;;;;;;;50.35;26.77;;;3.00;99.90;;;;;;5073276;28;20362;-39
2020/12/07 04:50:30;;;;;;;54.70;28.88;;;3.00;99.90;;;;;;5072342;28;20074;-39
2020/12/07 04:52:57;;;;;;;51.58;27.10;;;3.10;99.90;;;;;;5071831;28;20021;-39
2020/12/07 04:55:23;;;;;;;60.65;28.65;;;3.20;99.90;;;;;;5054002;28;20036;-41
2020/12/07 04:57:49;;;;;;;53.05;27.77;;;3.20;99.90;;;;;;5072993;28;20033;-38
2020/12/07 05:00:14;;;;;;;57.70;29.42;;;3.30;99.90;;;;;;5072877;28;20477;-39
2020/12/07 05:02:40;;;;;;;56.00;29.65;;;3.50;99.90;;;;;;5073099;28;20033;-41
2020/12/07 05:05:07;;;;;;;54.67;29.45;;;3.60;99.90;;;;;;5067238;28;20044;-40
2020/12/07 05:07:33;;;;;;;55.13;28.02;;;3.60;99.90;;;;;;5075357;28;20024;-38
2020/12/07 05:10:07;;;;;;;53.83;27.52;;;3.70;99.90;;;;;;5080729;28;20032;-43
2020/12/07 05:12:39;;;;;;;61.50;30.30;;;3.80;99.90;;;;;;5065412;28;20037;-39
2020/12/07 05:15:13;;;;;;;67.15;32.33;;;3.80;99.90;;;;;;5071940;28;20056;-39
2020/12/07 05:17:39;;;;;;;60.17;30.73;;;3.80;99.90;;;;;;5046594;28;20388;-38
2020/12/07 05:20:06;;;;;;;84.60;37.88;;;3.70;99.90;;;;;;5070707;28;20032;-38
2020/12/07 05:22:34;;;;;;;80.63;37.38;;;3.90;99.90;;;;;;5072870;28;20489;-38
2020/12/07 05:25:03;;;;;;;71.15;34.53;;;3.80;99.90;;;;;;5072363;28;20044;-42
2020/12/07 05:27:31;;;;;;;73.65;36.75;;;4.00;99.90;;;;;;5078277;28;20056;-47
2020/12/07 05:32:33;;;;;;;97.68;42.30;;;4.40;99.90;;;;;;5071721;28;20032;-40
2020/12/07 05:35:00;;;;;;;70.38;35.03;;;4.40;99.90;;;;;;5075507;28;20040;-41
2020/12/07 05:37:26;;;;;;;76.60;35.20;;;4.40;99.90;;;;;;5052901;28;20032;-41
2020/12/07 05:39:51;;;;;;;61.63;31.77;;;4.50;99.90;;;;;;5072236;28;20020;-42
2020/12/07 05:42:18;;;;;;;25.13;12.65;;;4.50;99.90;;;;;;5071405;28;20036;-46
2020/12/07 05:44:47;;;;;;;19.83;8.23;;;4.70;99.90;;;;;;5053216;28;20123;-44
2020/12/07 05:47:16;;;;;;;6.50;2.90;;;4.70;99.90;;;;;;5066434;28;20043;-40
2020/12/07 05:49:42;;;;;;;7.60;2.78;;;4.90;99.90;;;;;;5054694;28;20037;-45
2020/12/07 05:52:09;;;;;;;11.07;2.63;;;4.90;99.90;;;;;;5063476;28;20037;-42
2020/12/07 05:54:38;;;;;;;8.88;2.53;;;5.00;99.90;;;;;;5077011;28;20408;-46
2020/12/07 05:57:14;;;;;;;8.13;2.95;;;5.00;99.90;;;;;;5081118;28;20029;-46
2020/12/07 05:59:41;;;;;;;6.32;2.58;;;5.00;99.90;;;;;;5059401;28;20039;-42
2020/12/07 06:02:10;;;;;;;5.78;2.45;;;5.00;99.90;;;;;;5087891;28;20028;-40
2020/12/07 06:04:36;;;;;;;8.73;2.33;;;5.00;99.90;;;;;;5053724;28;20041;-45
2020/12/07 06:07:03;;;;;;;8.45;2.30;;;5.00;99.90;;;;;;5069944;28;20025;-49
2020/12/07 06:09:31;;;;;;;11.50;2.33;;;4.90;99.90;;;;;;5041380;28;20048;-44
2020/12/07 06:12:09;;;;;;;14.93;2.55;;;4.90;99.90;;;;;;5071548;28;20473;-40
2020/12/07 06:14:37;;;;;;;9.05;2.78;;;4.90;99.90;;;;;;5063068;28;20504;-42
2020/12/07 06:17:03;;;;;;;8.93;2.28;;;4.90;99.90;;;;;;5069472;28;20175;-45
2020/12/07 06:19:32;;;;;;;6.13;2.33;;;5.00;99.90;;;;;;5071086;28;20150;-48
2020/12/07 06:22:00;;;;;;;6.10;2.05;;;5.00;99.90;;;;;;5071719;28;20465;-45
2020/12/07 06:24:42;;;;;;;3.95;1.98;;;5.00;99.90;;;;;;5072011;28;20037;-44
2020/12/07 06:27:13;;;;;;;7.03;3.67;;;5.00;99.90;;;;;;5071933;28;20396;-44
2020/12/07 06:29:54;;;;;;;8.57;2.53;;;5.00;99.90;;;;;;5067543;28;20055;-38
2020/12/07 06:32:20;;;;;;;9.15;3.38;;;5.00;99.90;;;;;;5071597;28;20056;-40
2020/12/07 06:34:57;;;;;;;6.82;2.97;;;5.10;99.90;;;;;;5070665;28;20056;-42
2020/12/07 06:37:25;;;;;;;11.18;3.80;;;5.10;99.90;;;;;;5070490;28;20170;-45
2020/12/07 06:39:51;;;;;;;10.75;3.33;;;5.20;99.90;;;;;;5072086;28;20032;-38
2020/12/07 06:42:19;;;;;;;5.38;2.17;;;5.20;99.90;;;;;;5072291;28;20028;-38
2020/12/07 06:44:51;;;;;;;7.68;2.30;;;5.10;99.90;;;;;;5071563;28;20041;-42
2020/12/07 06:47:25;;;;;;;4.55;1.80;;;5.10;99.90;;;;;;5071081;28;20021;-39
2020/12/07 06:52:29;;;;;;;5.57;1.83;;;5.10;99.90;;;;;;5071493;28;20028;-39
2020/12/07 06:57:39;;;;;;;9.30;2.42;;;5.00;99.90;;;;;;5075203;28;20029;-38
2020/12/07 07:00:09;;;;;;;8.57;3.75;;;5.10;99.90;;;;;;5072515;28;21444;-41
2020/12/07 07:02:38;;;;;;;7.65;4.10;;;5.10;99.90;;;;;;5057625;28;20021;-37
2020/12/07 07:05:04;;;;;;;11.82;5.50;;;5.10;99.90;;;;;;5065428;28;20868;-38
2020/12/07 07:07:31;;;;;;;14.15;4.85;;;5.10;99.90;;;;;;5074679;28;20377;-40
2020/12/07 07:09:58;;;;;;;11.32;4.43;;;5.20;99.90;;;;;;5075180;28;20368;-38
2020/12/07 07:12:31;;;;;;;8.00;3.80;;;5.30;99.90;;;;;;5063242;28;20033;-39
2020/12/07 07:14:57;;;;;;;10.35;5.43;;;5.30;99.90;;;;;;5051118;28;20477;-38
2020/12/07 07:17:35;;;;;;;7.65;4.07;;;5.30;99.90;;;;;;5075342;28;20401;-38
2020/12/07 07:20:09;;;;;;;9.85;4.50;;;5.30;99.90;;;;;;5069507;28;20381;-40
2020/12/07 07:22:39;;;;;;;6.93;4.50;;;5.20;99.90;;;;;;5042609;28;20909;-39
2020/12/07 07:30:21;;;;;;;8.90;3.67;;;5.20;99.90;;;;;;5074773;28;20144;-38
2020/12/07 07:32:51;;;;;;;6.80;4.20;;;5.10;99.90;;;;;;5074860;28;20032;-38
2020/12/07 07:35:22;;;;;;;5.85;3.88;;;5.10;99.90;;;;;;5061076;28;20358;-44
2020/12/07 07:37:48;;;;;;;7.97;4.05;;;5.10;99.90;;;;;;5062994;28;20485;-38
2020/12/07 07:40:16;;;;;;;8.95;3.83;;;5.10;99.90;;;;;;5072985;28;20029;-41
2020/12/07 07:43:02;;;;;;;7.43;3.67;;;5.10;99.90;;;;;;5073836;28;20025;-38
2020/12/07 07:45:35;;;;;;;7.65;4.15;;;5.10;99.90;;;;;;5074063;28;20032;-40
2020/12/07 07:48:24;;;;;;;8.25;4.75;;;5.10;99.90;;;;;;5074988;28;20396;-38
2020/12/07 07:51:02;;;;;;;7.95;4.70;;;5.10;99.90;;;;;;5071335;28;20032;-40
2020/12/07 08:15:56;;;;;;;13.40;5.80;;;5.00;99.90;;;;;;5073249;28;20393;-38
2020/12/07 08:18:35;;;;;;;14.25;7.72;;;5.00;99.90;;;;;;5056332;28;20158;-42
2020/12/07 08:21:02;;;;;;;18.80;11.20;;;5.00;99.90;;;;;;5073483;28;20066;-38
2020/12/07 08:23:30;;;;;;;20.95;12.07;;;5.00;99.90;;;;;;5073484;28;20029;-41
2020/12/07 08:25:57;;;;;;;29.70;15.82;;;5.00;99.90;;;;;;5072747;28;20024;-38
2020/12/07 08:28:39;;;;;;;37.20;19.45;;;5.00;99.90;;;;;;5072570;28;20032;-43
2020/12/07 08:31:11;;;;;;;;;;;5.00;99.90;;;;;;5054631;28;20396;-38
2020/12/07 08:34:03;;;;;;;48.30;27.30;;;5.00;99.90;;;;;;5073313;28;20367;-42
2020/12/07 08:36:31;;;;;;;55.07;28.43;;;5.00;99.90;;;;;;5072957;28;20028;-38
2020/12/07 08:38:57;;;;;;;48.58;22.70;;;5.00;99.90;;;;;;5073526;28;20737;-37
2020/12/07 08:41:28;;;;;;;56.08;29.02;;;4.90;99.90;;;;;;5073400;28;20378;-38
2020/12/07 08:43:56;;;;;;;58.13;32.85;;;4.90;99.90;;;;;;5053678;28;20036;-39
2020/12/07 08:46:26;;;;;;;61.33;34.90;;;4.90;99.90;;;;;;5052453;28;21275;-38
2020/12/07 08:48:53;;;;;;;61.35;34.13;;;4.90;99.90;;;;;;5073004;28;20102;-38
2020/12/07 08:51:20;;;;;;;65.75;35.20;;;4.80;99.90;;;;;;5073375;28;20461;-37
2020/12/07 08:53:47;;;;;;;66.57;37.40;;;4.90;99.90;;;;;;5071317;28;20075;-38
2020/12/07 08:56:13;;;;;;;68.80;34.83;;;4.90;99.90;;;;;;5054064;28;20043;-37
2020/12/07 08:58:39;;;;;;;69.10;40.28;;;4.80;99.90;;;;;;5054929;28;20113;-40
2020/12/07 09:01:06;;;;;;;68.57;38.45;;;4.80;99.90;;;;;;5073662;28;20056;-38
2020/12/07 09:03:36;;;;;;;73.18;38.55;;;4.80;99.90;;;;;;5058914;28;20025;-39
2020/12/07 09:06:03;;;;;;;80.68;42.60;;;4.70;99.90;;;;;;5053586;28;20079;-40
2020/12/07 09:08:29;;;;;;;76.93;41.45;;;4.70;99.90;;;;;;5067759;28;20028;-38
2020/12/07 09:10:54;;;;;;;75.93;42.00;;;4.70;99.90;;;;;;5071710;28;20039;-37
2020/12/07 09:13:20;;;;;;;76.13;40.78;;;4.70;99.90;;;;;;5072890;28;20029;-39
2020/12/07 09:15:46;;;;;;;74.30;44.22;;;4.60;99.90;;;;;;5072403;28;20364;-39
2020/12/07 09:18:12;;;;;;;82.03;42.88;;;4.60;99.90;;;;;;5072490;28;20020;-38
2020/12/07 09:20:37;;;;;;;76.45;43.20;;;4.60;99.90;;;;;;5062109;28;20021;-38
2020/12/07 09:23:03;;;;;;;83.03;43.50;;;4.60;99.90;;;;;;5072668;28;20064;-38
2020/12/07 09:25:29;;;;;;;74.35;40.60;;;4.60;99.90;;;;;;5038172;28;20465;-38
2020/12/07 09:27:54;;;;;;;77.05;41.47;;;4.60;99.90;;;;;;5073018;28;20028;-37
2020/12/07 09:30:20;;;;;;;80.72;44.22;;;4.60;99.90;;;;;;5054335;28;20633;-41
2020/12/07 09:32:46;;;;;;;79.15;43.25;;;4.60;99.90;;;;;;5072716;28;20099;-40
2020/12/07 09:35:13;;;;;;;69.80;40.70;;;4.60;99.90;;;;;;5072884;28;20028;-38
2020/12/07 09:37:39;;;;;;;74.55;39.28;;;4.60;99.90;;;;;;5053126;28;20028;-42
2020/12/07 09:40:06;;;;;;;73.75;41.47;;;4.60;99.90;;;;;;5054268;28;20154;-41
2020/12/07 09:42:33;;;;;;;72.75;42.10;;;4.50;99.90;;;;;;5072545;28;20475;-39
2020/12/07 09:44:59;;;;;;;76.60;42.90;;;4.50;99.90;;;;;;5071243;28;20024;-41
2020/12/07 09:47:26;;;;;;;75.93;42.38;;;4.50;99.90;;;;;;5070884;28;20028;-38
2020/12/07 09:49:52;;;;;;;72.18;41.17;;;4.50;99.90;;;;;;5071892;28;20111;-41
2020/12/07 09:52:17;;;;;;;70.57;40.92;;;4.50;99.90;;;;;;5071782;28;20103;-37
2020/12/07 09:54:43;;;;;;;71.20;39.83;;;4.50;99.90;;;;;;5071331;28;20044;-37
2020/12/07 09:57:08;;;;;;;76.75;43.50;;;4.50;99.90;;;;;;5071303;28;20103;-38
2020/12/07 09:59:35;;;;;;;67.90;38.75;;;4.50;99.90;;;;;;5069613;28;20021;-38
2020/12/07 10:02:02;;;;;;;78.38;43.08;;;4.50;99.90;;;;;;5063183;28;20343;-39
2020/12/07 10:04:28;;;;;;;74.90;42.28;;;4.50;99.90;;;;;;5070753;28;20040;-38
2020/12/07 10:06:53;;;;;;;64.05;33.83;;;4.60;99.90;;;;;;5052184;28;20020;-40
2020/12/07 10:09:20;;;;;;;71.43;39.30;;;4.60;99.90;;;;;;5076998;28;20411;-42
2020/12/07 10:11:46;;;;;;;79.45;45.92;;;4.50;99.90;;;;;;5070318;28;20025;-37
2020/12/07 10:14:12;;;;;;;88.00;47.45;;;4.50;99.90;;;;;;5068933;28;20373;-38
2020/12/07 10:16:41;;;;;;;82.70;44.42;;;4.50;99.90;;;;;;5048703;28;20052;-37
2020/12/07 10:19:06;;;;;;;82.75;45.00;;;4.50;99.90;;;;;;5047433;28;20083;-38
2020/12/07 10:21:33;;;;;;;89.90;47.83;;;4.50;99.90;;;;;;5050116;28;20746;-42
2020/12/07 10:23:59;;;;;;;88.20;48.00;;;4.50;99.90;;;;;;5050743;28;20166;-37
2020/12/07 10:26:25;;;;;;;90.78;48.08;;;4.50;99.90;;;;;;5051047;28;20039;-38
2020/12/07 10:28:52;;;;;;;83.75;46.42;;;4.60;99.90;;;;;;5038776;28;20031;-40
2020/12/07 10:31:21;;;;;;;85.53;45.72;;;4.60;99.90;;;;;;5051470;28;20060;-37
2020/12/07 10:33:51;;;;;;;86.03;45.63;;;4.60;99.90;;;;;;5054530;28;20051;-37
2020/12/07 10:36:17;;;;;;;85.57;41.00;;;4.60;99.90;;;;;;5056614;28;20028;-38
2020/12/07 10:38:44;;;;;;;92.97;52.10;;;4.60;99.90;;;;;;5056237;28;20024;-39
2020/12/07 10:41:10;;;;;;;88.05;43.00;;;4.70;99.90;;;;;;5054322;28;20025;-38
2020/12/07 10:43:37;;;;;;;89.07;50.47;;;4.80;99.90;;;;;;5054515;28;20028;-39
2020/12/07 10:46:02;;;;;;;70.88;31.98;;;4.80;99.90;;;;;;5048162;28;20040;-38
2020/12/07 10:48:28;;;;;;;74.35;39.13;;;4.80;99.90;;;;;;5054321;28;20033;-37
2020/12/07 10:50:53;;;;;;;85.43;44.75;;;4.80;99.90;;;;;;5053787;28;20092;-37
2020/12/07 10:53:19;;;;;;;85.70;47.58;;;4.80;99.90;;;;;;5049155;28;20029;-39
2020/12/07 10:55:44;;;;;;;88.13;45.70;;;4.90;99.90;;;;;;5053136;28;20033;-39
2020/12/07 10:58:10;;;;;;;85.60;48.55;;;4.90;99.90;;;;;;5053897;28;20305;-37
2020/12/07 11:00:37;;;;;;;77.03;39.80;;;4.90;99.90;;;;;;5053867;28;20025;-37
2020/12/07 11:03:04;;;;;;;82.40;46.53;;;4.90;99.90;;;;;;5058759;28;20056;-41
2020/12/07 11:05:30;;;;;;;80.45;42.10;;;5.00;99.90;;;;;;5054434;28;20036;-37
2020/12/07 11:07:56;;;;;;;85.88;45.60;;;5.00;99.90;;;;;;5047767;28;20037;-37
2020/12/07 11:10:22;;;;;;;67.88;33.08;;;5.10;99.90;;;;;;5054293;28;20458;-38
2020/12/07 11:12:54;;;;;;;79.97;43.90;;;5.30;99.90;;;;;;5047827;28;20025;-37
2020/12/07 11:15:20;;;;;;;73.57;39.10;;;5.40;99.90;;;;;;5053558;28;20104;-39
2020/12/07 11:17:46;;;;;;;75.13;40.92;;;5.40;99.90;;;;;;5072510;28;20425;-37
2020/12/07 11:20:11;;;;;;;73.38;42.92;;;5.50;99.90;;;;;;5069543;28;20141;-37
2020/12/07 11:22:37;;;;;;;78.70;40.42;;;5.50;99.90;;;;;;5073486;28;20115;-37
2020/12/07 11:25:03;;;;;;;74.32;39.47;;;5.60;99.90;;;;;;5072887;28;20620;-38
2020/12/07 11:27:28;;;;;;;54.30;27.63;;;5.70;99.90;;;;;;5072381;28;20035;-39
2020/12/07 11:29:54;;;;;;;75.45;40.70;;;5.60;99.90;;;;;;5072062;28;20485;-37
2020/12/07 11:32:19;;;;;;;66.45;34.80;;;5.60;99.90;;;;;;5072769;28;20036;-40
2020/12/07 11:34:45;;;;;;;58.42;34.22;;;5.70;99.90;;;;;;5070304;28;20393;-37
2020/12/07 11:37:10;;;;;;;60.50;34.10;;;5.60;99.90;;;;;;5070221;28;20032;-40
2020/12/07 11:42:24;;;;;;;53.55;31.10;;;5.70;99.90;;;;;;5066568;28;20389;-37
2020/12/07 11:44:50;;;;;;;63.03;32.38;;;5.80;99.90;;;;;;5071343;28;20040;-38
2020/12/07 11:47:15;;;;;;;65.03;35.25;;;5.80;99.90;;;;;;5071545;28;20029;-38
2020/12/07 11:49:42;;;;;;;63.28;34.85;;;5.80;99.90;;;;;;5072292;28;20029;-42
2020/12/07 11:52:07;;;;;;;58.33;35.13;;;5.90;99.90;;;;;;5069648;28;20445;-38
2020/12/07 11:54:33;;;;;;;62.60;34.17;;;5.90;99.90;;;;;;5069319;28;20044;-37
2020/12/07 11:57:03;;;;;;;60.60;32.17;;;5.90;99.90;;;;;;5054839;28;20036;-37
2020/12/07 11:59:29;;;;;;;58.90;30.20;;;5.80;99.90;;;;;;5073342;28;20056;-39
2020/12/07 12:01:54;;;;;;;66.22;33.05;;;5.80;99.90;;;;;;5072076;28;20056;-38
2020/12/07 12:04:20;;;;;;;58.72;33.95;;;5.70;99.90;;;;;;5072471;28;20477;-38
2020/12/07 12:06:45;;;;;;;53.35;31.73;;;5.70;99.90;;;;;;5053595;28;20457;-38
2020/12/07 12:09:13;;;;;;;53.88;32.72;;;5.60;99.90;;;;;;5067863;28;20517;-39
2020/12/07 12:11:40;;;;;;;58.70;30.60;;;5.60;99.90;;;;;;5066293;28;20021;-38
2020/12/07 12:14:07;;;;;;;59.58;33.60;;;5.60;99.90;;;;;;5061339;28;20115;-38
2020/12/07 12:16:40;;;;;;;53.00;31.50;;;5.50;99.90;;;;;;5034922;28;20132;-38
2020/12/07 12:19:08;;;;;;;48.60;26.90;;;5.60;99.90;;;;;;5070068;28;20500;-44
2020/12/07 12:21:35;;;;;;;49.05;28.60;;;5.60;99.90;;;;;;5072181;28;20029;-39
2020/12/07 12:24:05;;;;;;;50.00;29.45;;;5.60;99.90;;;;;;5072097;28;20036;-39
2020/12/07 12:26:37;;;;;;;49.10;25.63;;;5.50;99.90;;;;;;5066805;28;20050;-38
2020/12/07 12:29:04;;;;;;;45.78;27.02;;;5.50;99.90;;;;;;5053782;28;20029;-39
2020/12/07 12:31:30;;;;;;;38.88;25.08;;;5.50;99.90;;;;;;5076227;28;20035;-41
2020/12/07 12:33:56;;;;;;;37.03;23.95;;;5.40;99.90;;;;;;5071494;28;20032;-38
2020/12/07 12:36:26;;;;;;;43.63;25.10;;;5.40;99.90;;;;;;5071339;28;20032;-38
2020/12/07 12:38:52;;;;;;;42.47;23.88;;;5.40;99.90;;;;;;5070743;28;20097;-38
2020/12/07 12:41:18;;;;;;;48.85;26.00;;;5.40;99.90;;;;;;5072115;28;20035;-38
2020/12/07 12:43:44;;;;;;;43.17;24.42;;;5.30;99.90;;;;;;5064094;28;20471;-38
2020/12/07 12:46:10;;;;;;;46.03;23.48;;;5.40;99.90;;;;;;5063721;28;20025;-38
2020/12/07 12:48:37;;;;;;;37.80;23.27;;;5.50;99.90;;;;;;5051893;28;20132;-38
2020/12/07 12:51:03;;;;;;;37.03;22.50;;;5.60;99.90;;;;;;5054250;28;20107;-38
2020/12/07 12:53:28;;;;;;;39.75;23.25;;;5.70;99.90;;;;;;5073166;28;20384;-39
2020/12/07 12:55:54;;;;;;;36.05;21.65;;;5.70;99.90;;;;;;5072832;28;20025;-38
2020/12/07 12:58:20;;;;;;;36.33;22.92;;;5.80;99.90;;;;;;5070859;28;20074;-38
2020/12/07 13:00:46;;;;;;;37.85;22.23;;;5.80;99.90;;;;;;5066914;28;20416;-38
2020/12/07 13:03:13;;;;;;;29.13;15.65;;;5.80;99.90;;;;;;5071178;28;20036;-38
2020/12/07 13:05:39;;;;;;;35.95;21.45;;;5.80;99.90;;;;;;5070258;28;20384;-39
2020/12/07 13:08:04;;;;;;;37.58;19.75;;;5.80;99.90;;;;;;5070896;28;20033;-39
2020/12/07 13:10:30;;;;;;;37.45;21.27;;;5.80;99.90;;;;;;5071453;28;20024;-38
2020/12/07 13:12:55;;;;;;;33.85;20.30;;;5.80;99.90;;;;;;5070911;28;20040;-39
2020/12/07 13:15:22;;;;;;;32.03;19.88;;;5.90;99.90;;;;;;5061609;28;20074;-38
2020/12/07 13:17:55;;;;;;;34.75;20.58;;;6.00;99.90;;;;;;5059225;28;20107;-38